sensor_id;sensor_type;location;lat;lon;timestamp;pressure;altitude;pressure_sealevel;temperature;humidity
53960;BME280;39866;48.638;-2.020;2023-02-15T00:01:38;102355.56;;;13.01;47.48
53960;BME280;39866;48.638;-2.020;2023-02-15T00:04:05;102348.31;;;13.09;47.63
53960;BME280;39866;48.638;-2.020;2023-02-15T00:06:31;102357.16;;;13.14;47.38
53960;BME280;39866;48.638;-2.020;2023-02-15T00:08:57;102352.09;;;12.93;47.45
53960;BME280;39866;48.638;-2.020;2023-02-15T00:11:22;102353.88;;;12.94;47.25
53960;BME280;39866;48.638;-2.020;2023-02-15T00:14:11;102344.13;;;12.91;47.51
53960;BME280;39866;48.638;-2.020;2023-02-15T00:16:37;102347.81;;;12.82;47.14
53960;BME280;39866;48.638;-2.020;2023-02-15T00:19:03;102350.38;;;12.90;47.63
53960;BME280;39866;48.638;-2.020;2023-02-15T00:21:31;102357.44;;;12.96;47.41
53960;BME280;39866;48.638;-2.020;2023-02-15T00:23:58;102354.78;;;12.93;47.33
53960;BME280;39866;48.638;-2.020;2023-02-15T00:26:24;102344.28;;;12.77;47.39
53960;BME280;39866;48.638;-2.020;2023-02-15T00:28:50;102351.56;;;12.64;48.01
53960;BME280;39866;48.638;-2.020;2023-02-15T00:31:16;102347.09;;;12.65;47.93
53960;BME280;39866;48.638;-2.020;2023-02-15T00:33:41;102349.72;;;12.71;47.36
53960;BME280;39866;48.638;-2.020;2023-02-15T00:36:08;102342.69;;;12.62;47.55
53960;BME280;39866;48.638;-2.020;2023-02-15T00:38:34;102341.78;;;12.63;47.58
53960;BME280;39866;48.638;-2.020;2023-02-15T00:41:01;102334.66;;;12.61;47.97
53960;BME280;39866;48.638;-2.020;2023-02-15T00:43:29;102331.19;;;12.56;47.68
53960;BME280;39866;48.638;-2.020;2023-02-15T00:45:55;102336.38;;;12.70;47.89
53960;BME280;39866;48.638;-2.020;2023-02-15T00:48:20;102332.78;;;12.74;48.14
53960;BME280;39866;48.638;-2.020;2023-02-15T00:50:54;102325.81;;;12.59;47.94
53960;BME280;39866;48.638;-2.020;2023-02-15T00:53:20;102330.25;;;12.61;48.11
53960;BME280;39866;48.638;-2.020;2023-02-15T00:55:45;102325.50;;;12.83;48.19
53960;BME280;39866;48.638;-2.020;2023-02-15T00:58:12;102332.56;;;12.87;47.71
53960;BME280;39866;48.638;-2.020;2023-02-15T01:00:38;102331.59;;;12.93;47.58
53960;BME280;39866;48.638;-2.020;2023-02-15T01:03:04;102326.97;;;13.07;47.13
53960;BME280;39866;48.638;-2.020;2023-02-15T01:05:30;102324.59;;;12.86;47.90
53960;BME280;39866;48.638;-2.020;2023-02-15T01:07:56;102330.72;;;12.93;47.66
53960;BME280;39866;48.638;-2.020;2023-02-15T01:10:22;102330.72;;;12.93;47.51
53960;BME280;39866;48.638;-2.020;2023-02-15T01:12:50;102326.41;;;12.82;47.80
53960;BME280;39866;48.638;-2.020;2023-02-15T01:15:15;102330.75;;;12.89;47.80
53960;BME280;39866;48.638;-2.020;2023-02-15T01:17:40;102327.34;;;12.78;48.21
53960;BME280;39866;48.638;-2.020;2023-02-15T01:20:07;102330.81;;;12.85;47.73
53960;BME280;39866;48.638;-2.020;2023-02-15T01:22:32;102330.22;;;12.63;47.89
53960;BME280;39866;48.638;-2.020;2023-02-15T01:24:57;102332.78;;;12.69;48.10
53960;BME280;39866;48.638;-2.020;2023-02-15T01:27:23;102332.88;;;12.63;47.70
53960;BME280;39866;48.638;-2.020;2023-02-15T01:29:48;102337.19;;;12.73;47.72
53960;BME280;39866;48.638;-2.020;2023-02-15T01:32:14;102325.81;;;12.59;47.55
53960;BME280;39866;48.638;-2.020;2023-02-15T01:34:39;102328.44;;;12.60;47.92
53960;BME280;39866;48.638;-2.020;2023-02-15T01:37:04;102327.28;;;12.81;47.21
53960;BME280;39866;48.638;-2.020;2023-02-15T01:39:30;102325.69;;;12.68;47.67
53960;BME280;39866;48.638;-2.020;2023-02-15T01:41:55;102315.13;;;12.59;47.64
53960;BME280;39866;48.638;-2.020;2023-02-15T01:47:22;102320.31;;;12.71;47.75
53960;BME280;39866;48.638;-2.020;2023-02-15T01:49:58;102318.63;;;12.61;47.62
53960;BME280;39866;48.638;-2.020;2023-02-15T01:52:25;102311.50;;;12.63;47.97
53960;BME280;39866;48.638;-2.020;2023-02-15T01:54:50;102311.34;;;12.75;47.61
53960;BME280;39866;48.638;-2.020;2023-02-15T01:57:18;102305.88;;;12.84;47.77
53960;BME280;39866;48.638;-2.020;2023-02-15T01:59:51;102307.75;;;12.79;47.73
53960;BME280;39866;48.638;-2.020;2023-02-15T02:02:18;102304.31;;;12.68;47.61
53960;BME280;39866;48.638;-2.020;2023-02-15T02:04:54;102307.06;;;12.60;47.52
53960;BME280;39866;48.638;-2.020;2023-02-15T02:07:24;102305.34;;;12.56;47.65
53960;BME280;39866;48.638;-2.020;2023-02-15T02:09:51;102309.94;;;12.44;47.75
53960;BME280;39866;48.638;-2.020;2023-02-15T02:12:18;102308.91;;;12.55;47.71
53960;BME280;39866;48.638;-2.020;2023-02-15T02:14:46;102308.13;;;12.47;47.71
53960;BME280;39866;48.638;-2.020;2023-02-15T02:17:16;102306.50;;;12.32;47.85
53960;BME280;39866;48.638;-2.020;2023-02-15T02:20:13;102287.88;;;12.29;47.93
53960;BME280;39866;48.638;-2.020;2023-02-15T02:28:54;102289.47;;;12.44;47.94
53960;BME280;39866;48.638;-2.020;2023-02-15T02:32:02;102288.59;;;12.42;47.70
53960;BME280;39866;48.638;-2.020;2023-02-15T02:34:47;102297.66;;;12.27;48.04
53960;BME280;39866;48.638;-2.020;2023-02-15T02:37:52;102290.47;;;12.32;48.38
53960;BME280;39866;48.638;-2.020;2023-02-15T02:43:17;102283.41;;;12.28;47.68
53960;BME280;39866;48.638;-2.020;2023-02-15T02:45:52;102286.78;;;12.46;47.80
53960;BME280;39866;48.638;-2.020;2023-02-15T02:48:24;102289.31;;;12.58;47.79
53960;BME280;39866;48.638;-2.020;2023-02-15T02:50:50;102290.97;;;12.65;47.31
53960;BME280;39866;48.638;-2.020;2023-02-15T02:53:16;102292.88;;;12.58;47.39
53960;BME280;39866;48.638;-2.020;2023-02-15T02:55:53;102293.88;;;12.47;47.48
53960;BME280;39866;48.638;-2.020;2023-02-15T02:58:46;102273.22;;;12.62;47.58
53960;BME280;39866;48.638;-2.020;2023-02-15T03:01:14;102276.72;;;12.68;47.20
53960;BME280;39866;48.638;-2.020;2023-02-15T03:03:47;102267.94;;;12.56;47.36
53960;BME280;39866;48.638;-2.020;2023-02-15T03:06:20;102270.66;;;12.53;48.01
53960;BME280;39866;48.638;-2.020;2023-02-15T03:08:51;102275.09;;;12.53;47.60
53960;BME280;39866;48.638;-2.020;2023-02-15T03:11:18;102275.09;;;12.53;47.71
53960;BME280;39866;48.638;-2.020;2023-02-15T03:13:45;102272.50;;;12.48;47.38
53960;BME280;39866;48.638;-2.020;2023-02-15T03:16:13;102283.19;;;12.48;47.54
53960;BME280;39866;48.638;-2.020;2023-02-15T03:18:59;102275.16;;;12.50;47.50
53960;BME280;39866;48.638;-2.020;2023-02-15T03:21:44;102280.53;;;12.47;47.42
53960;BME280;39866;48.638;-2.020;2023-02-15T03:24:24;102269.13;;;12.32;47.80
53960;BME280;39866;48.638;-2.020;2023-02-15T03:26:53;102270.06;;;12.30;47.71
53960;BME280;39866;48.638;-2.020;2023-02-15T03:29:23;102267.50;;;12.19;48.06
53960;BME280;39866;48.638;-2.020;2023-02-15T03:31:55;102272.72;;;12.30;48.04
53960;BME280;39866;48.638;-2.020;2023-02-15T03:34:23;102274.84;;;11.96;48.25
53960;BME280;39866;48.638;-2.020;2023-02-15T03:40:00;102271.31;;;11.97;48.08
53960;BME280;39866;48.638;-2.020;2023-02-15T03:42:59;102270.44;;;11.93;48.61
53960;BME280;39866;48.638;-2.020;2023-02-15T03:45:29;102265.16;;;11.88;49.09
53960;BME280;39866;48.638;-2.020;2023-02-15T03:47:56;102266.94;;;11.86;48.58
53960;BME280;39866;48.638;-2.020;2023-02-15T03:50:29;102258.28;;;11.57;49.24
53960;BME280;39866;48.638;-2.020;2023-02-15T03:53:18;102254.59;;;11.70;49.02
53960;BME280;39866;48.638;-2.020;2023-02-15T03:55:49;102250.28;;;11.57;49.17
53960;BME280;39866;48.638;-2.020;2023-02-15T03:58:17;102243.94;;;11.70;49.21
53960;BME280;39866;48.638;-2.020;2023-02-15T04:01:30;102243.22;;;11.50;49.40
53960;BME280;39866;48.638;-2.020;2023-02-15T04:04:15;102244.06;;;11.59;49.36
53960;BME280;39866;48.638;-2.020;2023-02-15T04:06:43;102230.81;;;11.47;49.64
53960;BME280;39866;48.638;-2.020;2023-02-15T04:09:08;102233.47;;;11.49;49.66
53960;BME280;39866;48.638;-2.020;2023-02-15T04:11:52;102223.75;;;11.43;49.71
53960;BME280;39866;48.638;-2.020;2023-02-15T04:14:17;102223.81;;;11.35;50.25
53960;BME280;39866;48.638;-2.020;2023-02-15T04:17:05;102230.25;;;11.04;50.85
53960;BME280;39866;48.638;-2.020;2023-02-15T04:19:31;102222.97;;;11.26;50.96
53960;BME280;39866;48.638;-2.020;2023-02-15T04:22:14;102236.16;;;11.46;50.74
53960;BME280;39866;48.638;-2.020;2023-02-15T04:24:58;102232.69;;;11.36;50.37
53960;BME280;39866;48.638;-2.020;2023-02-15T04:27:41;102233.56;;;11.39;50.78
53960;BME280;39866;48.638;-2.020;2023-02-15T04:30:08;102225.59;;;11.33;50.77
53960;BME280;39866;48.638;-2.020;2023-02-15T04:32:35;102215.94;;;11.17;50.52
53960;BME280;39866;48.638;-2.020;2023-02-15T04:35:00;102222.09;;;11.25;50.80
53960;BME280;39866;48.638;-2.020;2023-02-15T04:37:25;102219.59;;;11.04;50.75
53960;BME280;39866;48.638;-2.020;2023-02-15T04:39:51;102215.03;;;11.21;50.80
53960;BME280;39866;48.638;-2.020;2023-02-15T04:42:16;102216.88;;;11.10;50.69
53960;BME280;39866;48.638;-2.020;2023-02-15T04:44:42;102192.13;;;10.93;50.46
53960;BME280;39866;48.638;-2.020;2023-02-15T04:47:07;102210.75;;;10.99;50.39
53960;BME280;39866;48.638;-2.020;2023-02-15T04:49:33;102210.75;;;10.97;51.08
53960;BME280;39866;48.638;-2.020;2023-02-15T04:51:58;102203.47;;;11.24;50.13
53960;BME280;39866;48.638;-2.020;2023-02-15T04:54:23;102211.41;;;11.28;50.01
53960;BME280;39866;48.638;-2.020;2023-02-15T04:56:49;102200.88;;;11.14;49.87
53960;BME280;39866;48.638;-2.020;2023-02-15T04:59:14;102205.19;;;11.28;48.95
53960;BME280;39866;48.638;-2.020;2023-02-15T05:01:40;102195.44;;;11.22;49.40
53960;BME280;39866;48.638;-2.020;2023-02-15T05:04:05;102195.63;;;11.01;49.39
53960;BME280;39866;48.638;-2.020;2023-02-15T05:06:30;102198.16;;;11.19;49.31
53960;BME280;39866;48.638;-2.020;2023-02-15T05:08:55;102191.13;;;11.10;49.37
53960;BME280;39866;48.638;-2.020;2023-02-15T05:11:24;102190.34;;;10.96;49.64
53960;BME280;39866;48.638;-2.020;2023-02-15T05:13:49;102197.28;;;11.14;48.81
53960;BME280;39866;48.638;-2.020;2023-02-15T05:16:14;102203.28;;;11.42;48.56
53960;BME280;39866;48.638;-2.020;2023-02-15T05:18:40;102200.63;;;11.44;48.23
53960;BME280;39866;48.638;-2.020;2023-02-15T05:21:05;102203.25;;;11.47;48.00
53960;BME280;39866;48.638;-2.020;2023-02-15T05:23:30;102207.66;;;11.52;48.12
53960;BME280;39866;48.638;-2.020;2023-02-15T05:25:56;102206.97;;;11.26;48.56
53960;BME280;39866;48.638;-2.020;2023-02-15T05:28:39;102211.19;;;11.56;47.90
53960;BME280;39866;48.638;-2.020;2023-02-15T05:31:14;102210.41;;;11.43;47.97
53960;BME280;39866;48.638;-2.020;2023-02-15T05:33:41;102206.84;;;11.44;48.12
53960;BME280;39866;48.638;-2.020;2023-02-15T05:36:07;102202.38;;;11.45;47.70
53960;BME280;39866;48.638;-2.020;2023-02-15T05:38:33;102207.78;;;11.37;48.13
53960;BME280;39866;48.638;-2.020;2023-02-15T05:40:58;102210.53;;;11.28;48.44
53960;BME280;39866;48.638;-2.020;2023-02-15T05:43:24;102208.72;;;11.31;48.31
53960;BME280;39866;48.638;-2.020;2023-02-15T05:45:54;102207.00;;;11.24;48.34
53960;BME280;39866;48.638;-2.020;2023-02-15T05:48:22;102199.16;;;11.01;48.46
53960;BME280;39866;48.638;-2.020;2023-02-15T05:50:59;102188.41;;;11.13;47.77
53960;BME280;39866;48.638;-2.020;2023-02-15T05:53:26;102199.13;;;11.09;48.45
53960;BME280;39866;48.638;-2.020;2023-02-15T05:55:52;102198.16;;;11.19;47.67
53960;BME280;39866;48.638;-2.020;2023-02-15T05:58:17;102206.22;;;11.10;47.81
53960;BME280;39866;48.638;-2.020;2023-02-15T06:00:42;102205.16;;;11.32;47.56
53960;BME280;39866;48.638;-2.020;2023-02-15T06:03:08;102205.97;;;11.40;47.45
53960;BME280;39866;48.638;-2.020;2023-02-15T06:05:33;102207.75;;;11.41;47.97
53960;BME280;39866;48.638;-2.020;2023-02-15T06:07:59;102213.09;;;11.38;47.72
53960;BME280;39866;48.638;-2.020;2023-02-15T06:10:25;102219.28;;;11.42;48.12
53960;BME280;39866;48.638;-2.020;2023-02-15T06:12:51;102225.47;;;11.46;47.70
53960;BME280;39866;48.638;-2.020;2023-02-15T06:15:16;102241.22;;;11.75;47.35
53960;BME280;39866;48.638;-2.020;2023-02-15T06:17:41;102235.81;;;11.82;46.71
53960;BME280;39866;48.638;-2.020;2023-02-15T06:20:07;102249.88;;;12.00;46.87
53960;BME280;39866;48.638;-2.020;2023-02-15T06:22:33;102251.72;;;11.98;47.15
53960;BME280;39866;48.638;-2.020;2023-02-15T06:24:59;102251.84;;;11.79;47.07
53960;BME280;39866;48.638;-2.020;2023-02-15T06:27:24;102250.94;;;11.88;46.46
53960;BME280;39866;48.638;-2.020;2023-02-15T06:29:49;102244.06;;;11.58;47.33
53960;BME280;39866;48.638;-2.020;2023-02-15T06:32:15;102252.84;;;11.69;47.22
53960;BME280;39866;48.638;-2.020;2023-02-15T06:34:40;102248.28;;;11.82;47.34
53960;BME280;39866;48.638;-2.020;2023-02-15T06:37:06;102250.94;;;11.88;47.18
53960;BME280;39866;48.638;-2.020;2023-02-15T06:39:33;102248.44;;;11.65;47.07
53960;BME280;39866;48.638;-2.020;2023-02-15T06:41:58;102247.53;;;11.66;47.15
53960;BME280;39866;48.638;-2.020;2023-02-15T06:44:23;102248.44;;;11.65;47.53
53960;BME280;39866;48.638;-2.020;2023-02-15T06:46:49;102248.56;;;11.50;48.13
53960;BME280;39866;48.638;-2.020;2023-02-15T06:49:14;102243.34;;;11.34;48.54
53960;BME280;39866;48.638;-2.020;2023-02-15T06:51:39;102249.63;;;11.32;47.67
53960;BME280;39866;48.638;-2.020;2023-02-15T06:54:05;102253.13;;;11.37;48.02
53960;BME280;39866;48.638;-2.020;2023-02-15T06:56:30;102251.16;;;11.59;48.09
53960;BME280;39866;48.638;-2.020;2023-02-15T06:58:55;102254.72;;;11.58;47.41
53960;BME280;39866;48.638;-2.020;2023-02-15T07:01:21;102251.16;;;11.57;47.48
53960;BME280;39866;48.638;-2.020;2023-02-15T07:03:46;102249.50;;;11.44;47.88
53960;BME280;39866;48.638;-2.020;2023-02-15T07:06:12;102271.75;;;11.38;48.13
53960;BME280;39866;48.638;-2.020;2023-02-15T07:08:38;102270.91;;;11.36;48.24
53960;BME280;39866;48.638;-2.020;2023-02-15T07:11:05;102283.13;;;11.62;47.81
53960;BME280;39866;48.638;-2.020;2023-02-15T07:13:49;102291.91;;;11.78;47.59
53960;BME280;39866;48.638;-2.020;2023-02-15T07:16:14;102291.03;;;11.76;47.85
53960;BME280;39866;48.638;-2.020;2023-02-15T07:18:40;102294.50;;;11.90;47.75
53960;BME280;39866;48.638;-2.020;2023-02-15T07:21:06;102304.16;;;12.02;47.15
53960;BME280;39866;48.638;-2.020;2023-02-15T07:23:35;102298.81;;;12.03;47.09
53960;BME280;39866;48.638;-2.020;2023-02-15T07:26:01;102301.59;;;11.93;47.55
53960;BME280;39866;48.638;-2.020;2023-02-15T07:28:27;102305.91;;;12.06;47.26
53960;BME280;39866;48.638;-2.020;2023-02-15T07:30:52;102320.09;;;12.12;47.24
53960;BME280;39866;48.638;-2.020;2023-02-15T07:33:18;102311.19;;;12.10;48.12
53960;BME280;39866;48.638;-2.020;2023-02-15T07:35:57;102305.94;;;12.03;48.21
53960;BME280;39866;48.638;-2.020;2023-02-15T07:38:23;102307.75;;;11.99;48.89
53960;BME280;39866;48.638;-2.020;2023-02-15T07:40:49;102312.28;;;11.89;49.19
53960;BME280;39866;48.638;-2.020;2023-02-15T07:43:15;102310.47;;;11.92;49.20
53960;BME280;39866;48.638;-2.020;2023-02-15T07:45:40;102316.75;;;11.89;49.55
53960;BME280;39866;48.638;-2.020;2023-02-15T07:48:06;102305.16;;;11.93;49.25
53960;BME280;39866;48.638;-2.020;2023-02-15T07:50:33;102311.28;;;12.00;49.56
53960;BME280;39866;48.638;-2.020;2023-02-15T07:52:58;102310.44;;;11.98;49.50
53960;BME280;39866;48.638;-2.020;2023-02-15T07:55:25;102313.91;;;12.06;49.36
53960;BME280;39866;48.638;-2.020;2023-02-15T07:57:51;102316.56;;;12.09;49.08
53960;BME280;39866;48.638;-2.020;2023-02-15T08:00:18;102318.31;;;12.11;49.00
53960;BME280;39866;48.638;-2.020;2023-02-15T08:02:50;102324.53;;;12.12;49.39
53960;BME280;39866;48.638;-2.020;2023-02-15T08:05:36;102326.31;;;12.13;49.39
53960;BME280;39866;48.638;-2.020;2023-02-15T08:08:01;102323.66;;;12.10;49.52
53960;BME280;39866;48.638;-2.020;2023-02-15T08:10:26;102317.44;;;12.08;49.53
53960;BME280;39866;48.638;-2.020;2023-02-15T08:13:12;102310.38;;;12.04;48.76
53960;BME280;39866;48.638;-2.020;2023-02-15T08:15:37;102316.63;;;12.04;48.36
53960;BME280;39866;48.638;-2.020;2023-02-15T08:18:03;102319.31;;;12.00;48.73
53960;BME280;39866;48.638;-2.020;2023-02-15T08:20:28;102337.06;;;12.04;48.71
53960;BME280;39866;48.638;-2.020;2023-02-15T08:22:53;102331.81;;;11.95;48.84
53960;BME280;39866;48.638;-2.020;2023-02-15T08:25:19;102324.75;;;11.87;49.39
53960;BME280;39866;48.638;-2.020;2023-02-15T08:27:44;102323.91;;;11.79;49.64
53960;BME280;39866;48.638;-2.020;2023-02-15T08:30:10;102323.00;;;11.79;49.80
53960;BME280;39866;48.638;-2.020;2023-02-15T08:32:35;102319.47;;;11.78;50.20
53960;BME280;39866;48.638;-2.020;2023-02-15T08:35:00;102332.91;;;11.69;50.09
53960;BME280;39866;48.638;-2.020;2023-02-15T08:37:26;102339.03;;;11.85;50.25
53960;BME280;39866;48.638;-2.020;2023-02-15T08:39:51;102333.63;;;11.91;50.08
53960;BME280;39866;48.638;-2.020;2023-02-15T08:42:17;102334.56;;;11.85;50.25
53960;BME280;39866;48.638;-2.020;2023-02-15T08:44:42;102330.94;;;11.91;50.15
53960;BME280;39866;48.638;-2.020;2023-02-15T08:47:07;102325.63;;;11.89;50.14
53960;BME280;39866;48.638;-2.020;2023-02-15T08:49:33;102336.28;;;11.94;49.37
53960;BME280;39866;48.638;-2.020;2023-02-15T08:51:58;102337.09;;;12.01;49.41
53960;BME280;39866;48.638;-2.020;2023-02-15T08:54:24;102340.72;;;11.97;48.99
53960;BME280;39866;48.638;-2.020;2023-02-15T08:56:50;102336.16;;;12.06;48.73
53960;BME280;39866;48.638;-2.020;2023-02-15T08:59:18;102347.66;;;12.14;48.34
53960;BME280;39866;48.638;-2.020;2023-02-15T09:01:45;102340.53;;;12.12;48.34
53960;BME280;39866;48.638;-2.020;2023-02-15T09:04:11;102337.88;;;12.12;47.55
53960;BME280;39866;48.638;-2.020;2023-02-15T09:06:38;102337.22;;;11.88;47.93
53960;BME280;39866;48.638;-2.020;2023-02-15T09:09:05;102337.03;;;12.08;48.46
53960;BME280;39866;48.638;-2.020;2023-02-15T09:11:37;102334.28;;;12.16;48.06
53960;BME280;39866;48.638;-2.020;2023-02-15T09:14:08;102339.53;;;12.25;47.73
53960;BME280;39866;48.638;-2.020;2023-02-15T09:16:35;102344.91;;;12.22;47.72
53960;BME280;39866;48.638;-2.020;2023-02-15T09:19:02;102348.59;;;12.09;48.34
53960;BME280;39866;48.638;-2.020;2023-02-15T09:21:30;102337.03;;;12.07;48.69
53960;BME280;39866;48.638;-2.020;2023-02-15T09:23:58;102329.06;;;12.02;48.58
53960;BME280;39866;48.638;-2.020;2023-02-15T09:26:25;102325.69;;;11.85;49.50
53960;BME280;39866;48.638;-2.020;2023-02-15T09:28:53;102322.34;;;11.55;49.71
53960;BME280;39866;48.638;-2.020;2023-02-15T09:31:22;102335.59;;;11.63;50.37
53960;BME280;39866;48.638;-2.020;2023-02-15T09:33:48;102319.72;;;11.48;50.72
53960;BME280;39866;48.638;-2.020;2023-02-15T09:36:36;102326.88;;;11.41;51.09
53960;BME280;39866;48.638;-2.020;2023-02-15T09:39:23;102333.00;;;11.51;51.18
53960;BME280;39866;48.638;-2.020;2023-02-15T09:52:34;102344.13;;;12.11;49.90
53960;BME280;39866;48.638;-2.020;2023-02-15T09:55:19;102352.13;;;12.12;50.19
53960;BME280;39866;48.638;-2.020;2023-02-15T10:23:15;102329.31;;;12.66;50.22
53960;BME280;39866;48.638;-2.020;2023-02-15T10:28:19;102325.16;;;12.35;50.60
53960;BME280;39866;48.638;-2.020;2023-02-15T10:30:50;102332.03;;;12.59;50.14
53960;BME280;39866;48.638;-2.020;2023-02-15T10:33:40;102332.97;;;12.55;50.42
53960;BME280;39866;48.638;-2.020;2023-02-15T10:41:53;102334.72;;;12.58;50.13
53960;BME280;39866;48.638;-2.020;2023-02-15T11:00:26;102333.06;;;13.19;49.57
53960;BME280;39866;48.638;-2.020;2023-02-15T11:06:05;102323.38;;;13.08;49.89
53960;BME280;39866;48.638;-2.020;2023-02-15T11:08:56;102311.84;;;13.06;50.24
53960;BME280;39866;48.638;-2.020;2023-02-15T11:11:29;102309.09;;;13.11;50.17
53960;BME280;39866;48.638;-2.020;2023-02-15T11:14:02;102293.22;;;12.97;50.71
53960;BME280;39866;48.638;-2.020;2023-02-15T11:16:38;102284.19;;;13.07;50.59
53960;BME280;39866;48.638;-2.020;2023-02-15T11:19:12;102315.03;;;13.33;50.56
53960;BME280;39866;48.638;-2.020;2023-02-15T11:21:43;102326.59;;;13.36;50.48
53960;BME280;39866;48.638;-2.020;2023-02-15T11:24:11;102322.06;;;13.40;50.33
53960;BME280;39866;48.638;-2.020;2023-02-15T11:26:50;102316.88;;;13.31;50.75
53960;BME280;39866;48.638;-2.020;2023-02-15T11:29:28;102309.53;;;13.42;50.83
53960;BME280;39866;48.638;-2.020;2023-02-15T11:32:18;102305.91;;;13.48;50.91
53960;BME280;39866;48.638;-2.020;2023-02-15T11:37:46;102311.75;;;13.73;50.92
53960;BME280;39866;48.638;-2.020;2023-02-15T11:40:19;102313.44;;;13.77;51.03
53960;BME280;39866;48.638;-2.020;2023-02-15T11:42:47;102315.28;;;13.73;50.88
53960;BME280;39866;48.638;-2.020;2023-02-15T11:45:31;102316.84;;;13.86;50.66
53960;BME280;39866;48.638;-2.020;2023-02-15T11:48:00;102301.56;;;13.93;50.84
53960;BME280;39866;48.638;-2.020;2023-02-15T11:50:28;102298.94;;;13.90;50.84
53960;BME280;39866;48.638;-2.020;2023-02-15T11:52:58;102309.56;;;13.96;50.47
53960;BME280;39866;48.638;-2.020;2023-02-15T11:55:27;102311.31;;;13.97;51.06
53960;BME280;39866;48.638;-2.020;2023-02-15T12:00:41;102304.13;;;13.99;50.72
53960;BME280;39866;48.638;-2.020;2023-02-15T12:03:14;102302.53;;;13.89;51.05
53960;BME280;39866;48.638;-2.020;2023-02-15T12:05:44;102313.50;;;14.23;50.75
53960;BME280;39866;48.638;-2.020;2023-02-15T12:08:20;102312.06;;;14.52;50.31
53960;BME280;39866;48.638;-2.020;2023-02-15T12:10:58;102307.06;;;14.32;50.70
53960;BME280;39866;48.638;-2.020;2023-02-15T12:13:26;102296.25;;;14.36;50.84
53960;BME280;39866;48.638;-2.020;2023-02-15T12:15:54;102303.84;;;14.61;50.50
53960;BME280;39866;48.638;-2.020;2023-02-15T12:20:52;102313.59;;;14.65;50.85
53960;BME280;39866;48.638;-2.020;2023-02-15T12:23:18;102307.97;;;14.79;50.45
53960;BME280;39866;48.638;-2.020;2023-02-15T12:25:55;102307.97;;;14.77;50.36
53960;BME280;39866;48.638;-2.020;2023-02-15T12:28:41;102311.56;;;14.76;50.78
53960;BME280;39866;48.638;-2.020;2023-02-15T12:31:20;102302.34;;;14.90;50.77
53960;BME280;39866;48.638;-2.020;2023-02-15T12:33:46;102292.41;;;14.95;50.48
53960;BME280;39866;48.638;-2.020;2023-02-15T12:36:14;102299.28;;;15.08;50.61
53960;BME280;39866;48.638;-2.020;2023-02-15T12:38:41;102290.41;;;15.04;51.00
53960;BME280;39866;48.638;-2.020;2023-02-15T12:41:24;102292.69;;;15.21;50.65
53960;BME280;39866;48.638;-2.020;2023-02-15T12:46:28;102296.25;;;15.23;50.34
53960;BME280;39866;48.638;-2.020;2023-02-15T12:49:19;102297.13;;;15.22;50.89
53960;BME280;39866;48.638;-2.020;2023-02-15T12:51:50;102298.66;;;15.34;50.50
53960;BME280;39866;48.638;-2.020;2023-02-15T12:56:51;102290.06;;;15.57;50.20
53960;BME280;39866;48.638;-2.020;2023-02-15T12:59:18;102290.81;;;15.62;49.96
53960;BME280;39866;48.638;-2.020;2023-02-15T13:01:47;102295.97;;;15.71;50.04
53960;BME280;39866;48.638;-2.020;2023-02-15T13:04:23;102286.78;;;15.44;50.83
53960;BME280;39866;48.638;-2.020;2023-02-15T13:06:51;102264.88;;;15.25;50.97
53960;BME280;39866;48.638;-2.020;2023-02-15T13:09:20;102280.03;;;15.28;51.53
53960;BME280;39866;48.638;-2.020;2023-02-15T13:11:50;102281.38;;;15.46;50.83
53960;BME280;39866;48.638;-2.020;2023-02-15T13:14:19;102270.34;;;15.58;50.55
53960;BME280;39866;48.638;-2.020;2023-02-15T13:16:48;102280.78;;;15.70;49.86
53960;BME280;39866;48.638;-2.020;2023-02-15T13:19:26;102276.50;;;15.61;49.88
53960;BME280;39866;48.638;-2.020;2023-02-15T13:21:55;102282.84;;;15.95;49.25
53960;BME280;39866;48.638;-2.020;2023-02-15T13:24:27;102269.09;;;15.73;49.50
53960;BME280;39866;48.638;-2.020;2023-02-15T13:26:55;102270.59;;;15.84;49.13
53960;BME280;39866;48.638;-2.020;2023-02-15T13:29:25;102270.09;;;16.03;49.04
53960;BME280;39866;48.638;-2.020;2023-02-15T13:31:52;102274.63;;;16.01;48.98
53960;BME280;39866;48.638;-2.020;2023-02-15T13:37:10;102264.97;;;16.26;48.45
53960;BME280;39866;48.638;-2.020;2023-02-15T13:39:46;102254.16;;;16.28;48.36
53960;BME280;39866;48.638;-2.020;2023-02-15T13:42:38;102251.88;;;15.81;49.56
53960;BME280;39866;48.638;-2.020;2023-02-15T13:50:34;102235.81;;;16.13;49.46
53960;BME280;39866;48.638;-2.020;2023-02-15T14:12:38;102218.59;;;16.49;48.72
53960;BME280;39866;48.638;-2.020;2023-02-15T14:18:01;102217.06;;;16.70;48.13
53960;BME280;39866;48.638;-2.020;2023-02-15T14:20:41;102219.75;;;17.00;47.23
53960;BME280;39866;48.638;-2.020;2023-02-15T14:26:02;102200.03;;;17.27;46.67
53960;BME280;39866;48.638;-2.020;2023-02-15T14:28:42;102202.50;;;17.07;46.33
53960;BME280;39866;48.638;-2.020;2023-02-15T14:31:12;102201.84;;;17.27;46.37
53960;BME280;39866;48.638;-2.020;2023-02-15T14:33:41;102203.59;;;17.00;46.18
53960;BME280;39866;48.638;-2.020;2023-02-15T14:36:13;102197.72;;;17.42;45.23
53960;BME280;39866;48.638;-2.020;2023-02-15T14:42:23;102194.88;;;17.71;44.24
53960;BME280;39866;48.638;-2.020;2023-02-15T14:47:31;102195.44;;;17.82;44.41
53960;BME280;39866;48.638;-2.020;2023-02-15T14:49:59;102200.94;;;18.28;43.81
53960;BME280;39866;48.638;-2.020;2023-02-15T14:52:24;102190.22;;;18.26;43.60
53960;BME280;39866;48.638;-2.020;2023-02-15T14:59:44;102190.56;;;18.88;42.23
53960;BME280;39866;48.638;-2.020;2023-02-15T15:02:15;102186.84;;;19.12;42.11
53960;BME280;39866;48.638;-2.020;2023-02-15T15:04:46;102184.53;;;19.03;42.59
53960;BME280;39866;48.638;-2.020;2023-02-15T15:07:27;102187.03;;;19.50;42.04
53960;BME280;39866;48.638;-2.020;2023-02-15T15:12:56;102174.78;;;19.63;40.77
53960;BME280;39866;48.638;-2.020;2023-02-15T15:20:44;102184.00;;;19.58;41.00